createdAt,value
2022-11-28T00:01:31.686Z,1.55
2022-11-28T00:03:58.608Z,2.20
2022-11-28T00:06:26.807Z,1.98
2022-11-28T00:08:53.998Z,2.00
2022-11-28T00:11:20.728Z,1.98
2022-11-28T00:13:47.607Z,2.10
2022-11-28T00:16:23.324Z,2.15
2022-11-28T00:18:51.691Z,2.50
2022-11-28T00:21:19.343Z,2.25
2022-11-28T00:23:47.705Z,1.90
2022-11-28T00:26:18.525Z,1.95
2022-11-28T00:28:45.338Z,2.20
2022-11-28T00:31:20.791Z,2.35
2022-11-28T00:33:48.065Z,2.33
2022-11-28T00:36:14.809Z,2.45
2022-11-28T00:38:42.292Z,1.92
2022-11-28T00:41:15.035Z,2.05
2022-11-28T00:43:43.479Z,2.20
2022-11-28T00:46:11.838Z,2.67
2022-11-28T00:48:38.454Z,2.03
2022-11-28T00:51:07.901Z,2.47
2022-11-28T00:53:34.781Z,2.47
2022-11-28T00:56:05.687Z,1.98
2022-11-28T00:58:33.368Z,2.10
2022-11-28T01:01:00.532Z,2.30
2022-11-28T01:03:27.210Z,2.35
2022-11-28T01:05:53.958Z,2.10
2022-11-28T01:08:20.539Z,2.38
2022-11-28T01:10:47.187Z,2.10
2022-11-28T01:13:13.832Z,2.42
2022-11-28T01:15:42.293Z,2.42
2022-11-28T01:18:09.322Z,2.28
2022-11-28T01:20:36.021Z,2.47
2022-11-28T01:23:02.799Z,2.10
2022-11-28T01:25:29.624Z,2.58
2022-11-28T01:27:56.205Z,2.33
2022-11-28T01:30:22.778Z,2.33
2022-11-28T01:32:49.310Z,1.95
2022-11-28T01:35:15.961Z,2.42
2022-11-28T01:37:42.480Z,2.58
2022-11-28T01:40:11.676Z,2.50
2022-11-28T01:42:38.309Z,2.08
2022-11-28T01:45:13.100Z,2.22
2022-11-28T01:47:40.161Z,1.83
2022-11-28T01:50:07.767Z,1.95
2022-11-28T01:52:37.341Z,2.13
2022-11-28T01:55:05.444Z,2.15
2022-11-28T01:57:32.096Z,1.83
2022-11-28T02:00:05.130Z,2.20
2022-11-28T02:02:47.655Z,2.03
2022-11-28T02:05:16.046Z,2.00
2022-11-28T02:07:44.642Z,1.95
2022-11-28T02:10:16.644Z,1.92
2022-11-28T02:13:04.650Z,2.42
2022-11-28T02:15:43.352Z,2.33
2022-11-28T02:18:35.213Z,2.38
2022-11-28T02:21:25.435Z,2.00
2022-11-28T02:24:19.731Z,2.25
2022-11-28T02:27:11.751Z,2.00
2022-11-28T02:30:09.465Z,2.25
2022-11-28T02:32:52.361Z,2.33
2022-11-28T02:35:40.693Z,2.13
2022-11-28T02:38:28.380Z,2.13
2022-11-28T02:41:00.948Z,1.90
2022-11-28T02:43:50.383Z,1.95
2022-11-28T02:46:25.731Z,2.35
2022-11-28T02:49:01.477Z,1.90
2022-11-28T02:51:45.205Z,2.00
2022-11-28T02:54:15.461Z,1.98
2022-11-28T02:56:50.462Z,2.70
2022-11-28T02:59:40.417Z,2.40
2022-11-28T03:02:13.601Z,2.10
2022-11-28T03:04:57.711Z,2.08
2022-11-28T03:07:57.969Z,2.28
2022-11-28T03:10:42.862Z,2.50
2022-11-28T03:13:30.596Z,2.60
2022-11-28T03:16:00.188Z,2.55
2022-11-28T03:18:33.888Z,2.13
2022-11-28T03:21:13.240Z,2.28
2022-11-28T03:23:48.706Z,1.75
2022-11-28T03:26:23.487Z,2.67
2022-11-28T03:29:12.824Z,2.13
2022-11-28T03:31:49.761Z,2.38
2022-11-28T03:34:21.446Z,2.30
2022-11-28T03:36:53.933Z,2.33
2022-11-28T03:39:26.287Z,2.45
2022-11-28T03:42:03.120Z,2.60
2022-11-28T03:44:40.521Z,2.40
2022-11-28T03:47:08.433Z,2.15
2022-11-28T03:49:42.402Z,2.65
2022-11-28T03:52:18.442Z,2.88
2022-11-28T03:54:59.602Z,2.67
2022-11-28T03:57:44.977Z,2.40
2022-11-28T04:00:12.980Z,2.50
2022-11-28T04:02:52.721Z,2.40
2022-11-28T04:05:42.984Z,2.25
2022-11-28T04:08:18.247Z,2.53
2022-11-28T04:11:14.905Z,2.63
2022-11-28T04:13:51.094Z,2.97
2022-11-28T04:16:36.526Z,2.70
2022-11-28T04:19:27.798Z,2.40
2022-11-28T04:21:57.374Z,2.60
2022-11-28T04:24:29.529Z,2.28
2022-11-28T04:27:01.796Z,2.38
2022-11-28T04:29:34.402Z,2.08
2022-11-28T04:32:02.703Z,2.17
2022-11-28T04:34:32.679Z,1.92
2022-11-28T04:37:05.455Z,2.08
2022-11-28T04:39:36.787Z,3.00
2022-11-28T04:42:13.675Z,3.00
2022-11-28T04:44:52.491Z,3.00
2022-11-28T04:47:19.339Z,2.58
2022-11-28T04:49:46.098Z,2.60
2022-11-28T04:52:21.273Z,2.40
2022-11-28T04:55:05.071Z,2.13
2022-11-28T04:57:41.367Z,2.03
2022-11-28T05:00:11.737Z,2.13
2022-11-28T05:02:40.804Z,3.05
2022-11-28T05:05:14.289Z,2.33
2022-11-28T05:07:40.881Z,2.47
2022-11-28T05:10:08.482Z,2.30
2022-11-28T05:12:35.051Z,2.20
2022-11-28T05:15:01.801Z,1.98
2022-11-28T05:17:28.391Z,2.40
2022-11-28T05:19:55.215Z,2.20
2022-11-28T05:22:22.276Z,2.58
2022-11-28T05:24:48.823Z,3.10
2022-11-28T05:27:15.716Z,2.25
2022-11-28T05:29:48.096Z,2.28
2022-11-28T05:32:18.475Z,2.15
2022-11-28T05:34:45.063Z,2.60
2022-11-28T05:37:11.666Z,2.50
2022-11-28T05:39:38.317Z,3.10
2022-11-28T05:42:05.011Z,2.30
2022-11-28T05:44:31.646Z,2.85
2022-11-28T05:46:58.365Z,2.10
2022-11-28T05:49:25.707Z,2.17
2022-11-28T05:51:52.264Z,2.17
2022-11-28T05:54:18.967Z,2.25
2022-11-28T05:56:45.621Z,2.83
2022-11-28T05:59:13.626Z,2.53
2022-11-28T06:01:40.478Z,2.17
2022-11-28T06:04:07.222Z,2.55
2022-11-28T06:06:35.687Z,2.25
2022-11-28T06:09:02.794Z,2.53
2022-11-28T06:11:31.242Z,2.38
2022-11-28T06:13:58.017Z,2.25
2022-11-28T06:16:27.222Z,3.28
2022-11-28T06:19:02.934Z,3.53
2022-11-28T06:21:30.984Z,2.90
2022-11-28T06:23:58.809Z,2.92
2022-11-28T06:26:27.028Z,2.20
2022-11-28T06:28:55.482Z,2.72
2022-11-28T06:31:28.493Z,2.15
2022-11-28T06:33:56.255Z,2.22
2022-11-28T06:36:24.653Z,2.78
2022-11-28T06:38:51.508Z,2.20
2022-11-28T06:41:19.868Z,2.42
2022-11-28T06:43:46.433Z,3.45
2022-11-28T06:46:16.683Z,3.25
2022-11-28T06:48:44.595Z,3.30
2022-11-28T06:51:11.877Z,3.72
2022-11-28T06:53:38.558Z,3.78
2022-11-28T06:56:13.950Z,3.90
2022-11-28T07:01:10.431Z,3.45
2022-11-28T07:03:38.381Z,3.13
2022-11-28T07:06:05.780Z,2.53
2022-11-28T07:08:32.710Z,3.10
2022-11-28T07:11:07.697Z,3.08
2022-11-28T07:13:34.236Z,2.75
2022-11-28T07:16:00.743Z,2.97
2022-11-28T07:18:27.383Z,3.30
2022-11-28T07:20:53.980Z,2.45
2022-11-28T07:23:20.563Z,2.60
2022-11-28T07:25:47.106Z,3.10
2022-11-28T07:28:13.641Z,2.90
2022-11-28T07:30:41.155Z,2.75
2022-11-28T07:33:08.127Z,2.67
2022-11-28T07:35:34.668Z,3.15
2022-11-28T07:38:01.389Z,2.88
2022-11-28T07:40:28.159Z,2.55
2022-11-28T07:42:54.801Z,2.33
2022-11-28T07:45:22.898Z,2.72
2022-11-28T07:47:49.574Z,2.55
2022-11-28T07:50:16.142Z,2.30
2022-11-28T07:52:42.684Z,2.67
2022-11-28T07:55:09.373Z,2.70
2022-11-28T07:57:36.074Z,2.80
2022-11-28T08:00:04.682Z,2.47
2022-11-28T08:02:39.283Z,2.92
2022-11-28T08:05:06.359Z,2.78
2022-11-28T08:07:33.152Z,3.10
2022-11-28T08:09:59.706Z,2.75
2022-11-28T08:12:26.585Z,2.50
2022-11-28T08:14:53.346Z,3.13
2022-11-28T08:17:20.005Z,2.92
2022-11-28T08:19:46.648Z,2.90
2022-11-28T08:22:13.350Z,3.17
2022-11-28T08:24:40.203Z,3.83
2022-11-28T08:27:07.039Z,3.03
2022-11-28T08:29:34.021Z,2.83
2022-11-28T08:32:00.723Z,2.92
2022-11-28T08:34:27.256Z,2.80
2022-11-28T08:36:54.280Z,3.42
2022-11-28T08:39:25.052Z,3.05
2022-11-28T08:41:59.603Z,3.42
2022-11-28T08:44:27.516Z,3.22
2022-11-28T08:46:54.683Z,3.20
2022-11-28T08:49:21.434Z,2.80
2022-11-28T08:51:47.964Z,2.95
2022-11-28T08:54:15.104Z,2.97
2022-11-28T08:56:41.696Z,2.80
2022-11-28T08:59:09.469Z,3.47
2022-11-28T09:01:36.193Z,2.88
2022-11-28T09:04:04.112Z,3.25
2022-11-28T09:06:30.906Z,2.40
2022-11-28T09:08:57.945Z,3.28
2022-11-28T09:11:24.545Z,2.72
2022-11-28T09:13:51.229Z,3.17
2022-11-28T09:16:18.328Z,3.55
2022-11-28T09:18:45.103Z,2.85
2022-11-28T09:21:13.900Z,2.72
2022-11-28T09:23:42.087Z,3.50
2022-11-28T09:26:10.733Z,3.10
2022-11-28T09:28:37.344Z,2.72
2022-11-28T09:31:05.846Z,3.40
2022-11-28T09:33:33.441Z,3.60
2022-11-28T09:36:06.947Z,2.53
2022-11-28T09:38:34.439Z,2.72
2022-11-28T09:41:02.548Z,3.33
2022-11-28T09:43:36.291Z,3.35
2022-11-28T09:46:08.275Z,2.85
2022-11-28T09:48:46.712Z,2.58
2022-11-28T09:51:24.196Z,2.78
2022-11-28T09:54:03.842Z,2.78
2022-11-28T09:56:30.659Z,3.40
2022-11-28T09:59:03.020Z,2.97
2022-11-28T10:02:04.037Z,3.22
2022-11-28T10:05:05.244Z,3.22
2022-11-28T10:08:14.146Z,2.92
2022-11-28T10:10:55.094Z,2.83
2022-11-28T10:14:05.992Z,2.90
2022-11-28T10:16:41.490Z,2.90
2022-11-28T10:19:46.007Z,2.80
2022-11-28T10:22:07.450Z,2.78
2022-11-28T10:24:39.353Z,3.17
2022-11-28T10:27:06.783Z,2.97
2022-11-28T10:29:39.537Z,3.00
2022-11-28T10:32:06.678Z,2.75
2022-11-28T10:34:45.357Z,3.05
2022-11-28T10:37:27.994Z,3.00
2022-11-28T10:39:56.081Z,3.35
2022-11-28T10:42:35.286Z,3.13
2022-11-28T10:45:11.028Z,3.03
2022-11-28T10:48:07.537Z,3.10
2022-11-28T10:50:55.628Z,2.80
2022-11-28T10:53:40.584Z,2.90
2022-11-28T10:56:39.217Z,2.87
2022-11-28T10:59:36.905Z,3.20
2022-11-28T11:02:32.921Z,2.63
2022-11-28T11:04:59.919Z,3.65
2022-11-28T11:07:32.137Z,2.33
2022-11-28T11:10:17.293Z,2.90
2022-11-28T11:12:44.814Z,3.85
2022-11-28T11:15:25.172Z,2.80
2022-11-28T11:17:52.067Z,2.85
2022-11-28T11:20:31.206Z,2.75
2022-11-28T11:23:01.372Z,3.28
2022-11-28T11:25:32.689Z,3.28
2022-11-28T11:28:03.347Z,3.03
2022-11-28T11:30:33.956Z,3.35
2022-11-28T11:33:03.789Z,3.17
2022-11-28T11:35:35.547Z,2.67
2022-11-28T11:38:17.286Z,3.47
2022-11-28T11:40:44.718Z,3.40
2022-11-28T11:43:30.964Z,2.97
2022-11-28T11:46:12.556Z,3.60
2022-11-28T11:48:40.379Z,3.05
2022-11-28T11:51:28.841Z,3.58
2022-11-28T11:54:28.335Z,3.25
2022-11-28T11:57:11.191Z,3.85
2022-11-28T11:59:50.631Z,3.83
2022-11-28T12:02:43.293Z,3.08
2022-11-28T12:05:18.463Z,3.28
2022-11-28T12:08:01.577Z,3.67
2022-11-28T12:10:46.340Z,3.25
2022-11-28T12:13:19.970Z,3.15
2022-11-28T12:16:13.548Z,3.08
2022-11-28T12:18:59.407Z,3.72
2022-11-28T12:21:40.093Z,2.72
2022-11-28T12:24:12.318Z,3.50
2022-11-28T12:27:06.480Z,3.10
2022-11-28T12:29:39.398Z,2.85
2022-11-28T12:32:28.670Z,3.17
2022-11-28T12:35:17.069Z,3.00
2022-11-28T12:41:03.986Z,3.30
2022-11-28T12:43:46.540Z,3.10
2022-11-28T12:46:41.995Z,3.25
2022-11-28T12:49:19.733Z,3.28
2022-11-28T12:52:00.764Z,3.30
2022-11-28T12:54:39.533Z,3.15
2022-11-28T12:57:06.210Z,3.20
2022-11-28T12:59:54.094Z,3.25
2022-11-28T13:02:41.867Z,4.28
2022-11-28T13:05:30.639Z,3.42
2022-11-28T13:08:22.935Z,3.97
2022-11-28T13:11:01.678Z,3.53
2022-11-28T13:13:42.871Z,4.38
2022-11-28T13:16:13.083Z,5.18
2022-11-28T13:18:44.291Z,4.15
2022-11-28T13:21:43.349Z,4.25
2022-11-28T13:24:16.810Z,4.25
2022-11-28T13:26:46.173Z,4.22
2022-11-28T13:29:38.690Z,4.40
2022-11-28T13:32:15.254Z,4.50
2022-11-28T13:34:42.350Z,4.07
2022-11-28T13:40:26.668Z,3.92
2022-11-28T13:43:14.131Z,4.32
2022-11-28T13:45:43.542Z,3.47
2022-11-28T13:51:31.500Z,3.47
2022-11-28T13:54:16.977Z,3.60
2022-11-28T13:56:46.334Z,3.33
2022-11-28T13:59:25.272Z,4.15
2022-11-28T14:02:01.468Z,4.03
2022-11-28T14:04:29.775Z,4.43
2022-11-28T14:07:06.960Z,4.72
2022-11-28T14:09:47.482Z,3.65
2022-11-28T14:12:25.518Z,3.78
2022-11-28T14:15:01.480Z,4.05
2022-11-28T14:20:37.322Z,3.80
2022-11-28T14:23:23.290Z,4.07
2022-11-28T14:28:38.081Z,3.78
2022-11-28T14:32:06.694Z,3.60
2022-11-28T14:34:46.244Z,3.50
2022-11-28T14:37:19.089Z,3.17
2022-11-28T14:39:50.524Z,3.70
2022-11-28T14:42:44.152Z,3.63
2022-11-28T14:45:43.256Z,2.95
2022-11-28T14:48:28.444Z,3.13
2022-11-28T14:51:01.409Z,3.40
2022-11-28T14:53:45.418Z,3.60
2022-11-28T14:56:15.116Z,3.28
2022-11-28T14:58:50.331Z,3.17
2022-11-28T15:04:34.153Z,4.05
2022-11-28T15:07:03.197Z,3.85
2022-11-28T15:09:48.977Z,3.65
2022-11-28T15:12:37.840Z,3.25
2022-11-28T15:15:07.909Z,3.65
2022-11-28T15:17:35.189Z,3.58
2022-11-28T15:20:08.967Z,3.70
2022-11-28T15:22:43.362Z,4.45
2022-11-28T15:25:35.496Z,2.90
2022-11-28T15:28:19.366Z,3.30
2022-11-28T15:30:51.408Z,2.88
2022-11-28T15:33:20.035Z,2.92
2022-11-28T15:36:10.800Z,3.83
2022-11-28T15:38:41.267Z,3.05
2022-11-28T15:41:08.098Z,3.30
2022-11-28T15:43:37.628Z,2.97
2022-11-28T15:46:05.863Z,3.13
2022-11-28T15:48:39.377Z,3.65
2022-11-28T15:51:08.425Z,3.67
2022-11-28T15:53:42.076Z,2.70
2022-11-28T15:56:14.888Z,3.75
2022-11-28T15:58:43.715Z,2.90
2022-11-28T16:01:19.692Z,3.55
2022-11-28T16:03:57.046Z,3.55
2022-11-28T16:06:26.640Z,3.30
2022-11-28T16:09:03.921Z,3.72
2022-11-28T16:11:31.653Z,4.05
2022-11-28T16:14:01.346Z,3.70
2022-11-28T16:16:31.368Z,4.38
2022-11-28T16:19:01.802Z,4.07
2022-11-28T16:21:34.922Z,3.90
2022-11-28T16:24:03.310Z,4.22
2022-11-28T16:26:34.163Z,4.55
2022-11-28T16:29:06.833Z,4.15
2022-11-28T16:31:34.731Z,3.72
2022-11-28T16:34:02.635Z,3.78
2022-11-28T16:36:29.883Z,4.60
2022-11-28T16:39:23.629Z,4.22
2022-11-28T16:42:06.333Z,3.92
2022-11-28T16:44:33.734Z,3.80
2022-11-28T16:47:00.647Z,4.07
2022-11-28T16:49:47.900Z,3.92
2022-11-28T16:52:24.082Z,3.85
2022-11-28T16:54:52.248Z,3.60
2022-11-28T16:57:20.160Z,3.85
2022-11-28T16:59:48.168Z,3.45
2022-11-28T17:02:17.764Z,3.22
2022-11-28T17:04:45.964Z,3.67
2022-11-28T17:07:16.317Z,3.60
2022-11-28T17:09:44.634Z,3.33
2022-11-28T17:12:32.404Z,3.55
2022-11-28T17:14:59.276Z,3.42
2022-11-28T17:17:27.373Z,3.63
2022-11-28T17:19:54.135Z,4.07
2022-11-28T17:22:29.850Z,4.10
2022-11-28T17:25:00.129Z,4.13
2022-11-28T17:27:27.929Z,4.60
2022-11-28T17:29:54.913Z,3.85
2022-11-28T17:32:22.845Z,4.03
2022-11-28T17:34:49.418Z,4.45
2022-11-28T17:37:16.534Z,4.30
2022-11-28T17:40:01.879Z,4.60
2022-11-28T17:42:30.535Z,4.88
2022-11-28T17:44:57.512Z,4.82
2022-11-28T17:47:24.939Z,4.53
2022-11-28T17:49:52.206Z,5.25
2022-11-28T17:52:20.364Z,5.18
2022-11-28T17:54:47.050Z,5.13
2022-11-28T17:57:14.115Z,4.35
2022-11-28T17:59:40.640Z,4.55
2022-11-28T18:02:07.478Z,4.93
2022-11-28T18:04:34.818Z,4.63
2022-11-28T18:07:01.942Z,4.75
2022-11-28T18:09:29.159Z,5.07
2022-11-28T18:11:55.731Z,5.18
2022-11-28T18:14:22.216Z,4.60
2022-11-28T18:16:49.279Z,5.22
2022-11-28T18:19:15.971Z,4.80
2022-11-28T18:21:42.630Z,6.00
2022-11-28T18:24:09.281Z,5.38
2022-11-28T18:26:37.579Z,4.80
2022-11-28T18:29:04.600Z,5.10
2022-11-28T18:31:32.324Z,5.40
2022-11-28T18:34:02.507Z,5.47
2022-11-28T18:36:33.931Z,4.68
2022-11-28T18:39:04.389Z,5.15
2022-11-28T18:41:31.623Z,5.28
2022-11-28T18:44:01.334Z,5.20
2022-11-28T18:46:29.759Z,5.38
2022-11-28T18:48:57.367Z,4.80
2022-11-28T18:51:29.982Z,5.45
2022-11-28T18:53:57.782Z,4.57
2022-11-28T18:56:27.188Z,4.85
2022-11-28T18:58:54.294Z,5.25
2022-11-28T19:01:22.608Z,4.20
2022-11-28T19:03:54.496Z,4.82
2022-11-28T19:06:21.721Z,4.40
2022-11-28T19:08:52.504Z,4.75
2022-11-28T19:11:20.161Z,4.63
2022-11-28T19:13:48.138Z,5.25
2022-11-28T19:16:17.956Z,4.13
2022-11-28T19:18:45.523Z,4.40
2022-11-28T19:21:15.656Z,4.55
2022-11-28T19:23:42.842Z,5.55
2022-11-28T19:26:12.367Z,4.93
2022-11-28T19:28:40.885Z,4.30
2022-11-28T19:31:17.216Z,3.92
2022-11-28T19:33:44.403Z,4.18
2022-11-28T19:36:13.919Z,3.42
2022-11-28T19:38:41.629Z,3.78
2022-11-28T19:41:10.242Z,4.28
2022-11-28T19:43:37.161Z,3.85
2022-11-28T19:46:06.315Z,4.40
2022-11-28T19:48:35.015Z,4.10
2022-11-28T19:51:03.786Z,3.55
2022-11-28T19:53:32.099Z,3.33
2022-11-28T19:56:03.820Z,4.60
2022-11-28T19:58:31.494Z,3.78
2022-11-28T20:01:18.661Z,3.88
2022-11-28T20:03:47.755Z,4.25
2022-11-28T20:06:19.154Z,4.38
2022-11-28T20:08:46.966Z,3.85
2022-11-28T20:11:17.181Z,4.68
2022-11-28T20:13:44.435Z,3.85
2022-11-28T20:16:12.713Z,4.05
2022-11-28T20:18:41.551Z,4.10
2022-11-28T20:21:14.817Z,4.20
2022-11-28T20:23:47.223Z,4.45
2022-11-28T20:26:14.865Z,3.55
2022-11-28T20:28:42.711Z,4.30
2022-11-28T20:31:37.038Z,3.95
2022-11-28T20:34:06.125Z,4.07
2022-11-28T20:36:33.524Z,3.88
2022-11-28T20:39:01.414Z,4.88
2022-11-28T20:41:29.188Z,3.83
2022-11-28T20:43:56.052Z,4.45
2022-11-28T20:46:30.037Z,4.25
2022-11-28T20:49:03.148Z,4.07
2022-11-28T20:51:32.639Z,3.35
2022-11-28T20:54:00.409Z,5.13
2022-11-28T20:56:29.848Z,4.53
2022-11-28T20:58:59.146Z,5.38
2022-11-28T21:01:27.916Z,4.75
2022-11-28T21:03:54.538Z,5.32
2022-11-28T21:06:21.242Z,4.78
2022-11-28T21:08:48.043Z,4.22
2022-11-28T21:11:30.972Z,4.25
2022-11-28T21:14:04.871Z,5.13
2022-11-28T21:16:33.078Z,5.55
2022-11-28T21:19:04.494Z,5.70
2022-11-28T21:21:32.714Z,5.47
2022-11-28T21:24:03.095Z,5.70
2022-11-28T21:26:33.070Z,5.90
2022-11-28T21:29:05.901Z,5.60
2022-11-28T21:31:35.030Z,6.25
2022-11-28T21:34:02.099Z,6.88
2022-11-28T21:36:30.500Z,7.35
2022-11-28T21:39:00.670Z,6.55
2022-11-28T21:41:30.041Z,6.07
2022-11-28T21:43:58.474Z,6.20
2022-11-28T21:46:26.381Z,7.75
2022-11-28T21:48:53.690Z,6.07
2022-11-28T21:51:22.153Z,6.30
2022-11-28T21:53:49.295Z,6.07
2022-11-28T21:56:15.848Z,7.07
2022-11-28T21:58:42.897Z,7.30
2022-11-28T22:01:11.865Z,6.47
2022-11-28T22:03:39.687Z,5.82
2022-11-28T22:06:22.670Z,7.07
2022-11-28T22:08:50.223Z,6.30
2022-11-28T22:11:17.710Z,6.43
2022-11-28T22:13:45.852Z,6.75
2022-11-28T22:16:16.648Z,5.93
2022-11-28T22:18:44.940Z,5.38
2022-11-28T22:21:50.054Z,5.82
2022-11-28T22:23:59.466Z,5.47
2022-11-28T22:26:26.156Z,5.28
2022-11-28T22:28:53.744Z,4.80
2022-11-28T22:31:22.561Z,5.38
2022-11-28T22:33:50.469Z,5.45
2022-11-28T22:36:19.711Z,5.80
2022-11-28T22:38:48.316Z,5.70
2022-11-28T22:41:26.209Z,5.78
2022-11-28T22:43:57.233Z,6.40
2022-11-28T22:46:24.422Z,5.72
2022-11-28T22:48:51.869Z,5.35
2022-11-28T22:51:21.425Z,4.63
2022-11-28T22:53:51.793Z,5.60
2022-11-28T22:56:18.402Z,5.38
2022-11-28T22:58:45.427Z,5.30
2022-11-28T23:01:17.100Z,5.30
2022-11-28T23:03:44.871Z,4.32
2022-11-28T23:06:17.536Z,5.43
2022-11-28T23:08:45.098Z,3.72
2022-11-28T23:11:17.970Z,4.18
2022-11-28T23:13:47.797Z,4.25
2022-11-28T23:16:16.387Z,4.72
2022-11-28T23:18:46.555Z,4.90
2022-11-28T23:21:14.889Z,4.25
2022-11-28T23:23:43.843Z,3.63
2022-11-28T23:26:13.440Z,3.75
2022-11-28T23:28:40.557Z,4.07
2022-11-28T23:31:16.390Z,3.88
2022-11-28T23:33:44.427Z,3.70
2022-11-28T23:36:24.432Z,4.20
2022-11-28T23:38:54.417Z,3.80
2022-11-28T23:41:21.514Z,4.25
2022-11-28T23:43:48.518Z,4.53
2022-11-28T23:46:16.064Z,4.20
2022-11-28T23:48:43.707Z,4.85
2022-11-28T23:51:12.744Z,4.15
2022-11-28T23:53:39.932Z,4.93
2022-11-28T23:56:20.931Z,4.45
2022-11-28T23:58:47.843Z,4.82
